Time;durP1;ratioP1;P1;durP2;ratioP2;P2;SDS_P1;SDS_P2;PMS_P1;PMS_P2;Temp;Humidity;BMP_temperature;BMP_pressure;BME280_temperature;BME280_humidity;BME280_pressure;Samples;Min_cycle;Max_cycle;Signal;HPM_P1;HPM_P2
2021/11/01 00:01:20;;;;;;;;;;;;;;;;;;5023826;28;19932;-60
2021/11/01 00:03:47;;;;;;;;;;;;;;;;;;5020924;28;19925;-60
2021/11/01 00:06:14;;;;;;;;;;;;;;;;;;5028951;28;19932;-60
2021/11/01 00:08:42;;;;;;;;;;;;;;;;;;5022384;28;19929;-59
2021/11/01 00:11:09;;;;;;;;;;;;;;;;;;5028558;28;19933;-60
2021/11/01 00:13:36;;;;;;;;;;;;;;;;;;5026661;28;20282;-59
2021/11/01 00:16:03;;;;;;;;;;;;;;;;;;5020326;28;19932;-60
2021/11/01 00:18:30;;;;;;;;;;;;;;;;;;5023520;28;19925;-60
2021/11/01 00:20:57;;;;;;;;;;;;;;;;;;5027566;28;19933;-60
2021/11/01 00:23:24;;;;;;;;;;;;;;;;;;5028494;28;20305;-60
2021/11/01 00:25:51;;;;;;;;;;;;;;;;;;5027562;28;19925;-59
2021/11/01 00:28:18;;;;;;;;;;;;;;;;;;5025839;28;19932;-59
2021/11/01 00:30:45;;;;;;;;;;;;;;;;;;5025876;28;20289;-60
2021/11/01 00:33:12;;;;;;;;;;;;;;;;;;5021691;28;19932;-60
2021/11/01 00:35:39;;;;;;;;;;;;;;;;;;5023030;28;19932;-59
2021/11/01 00:38:06;;;;;;;;;;;;;;;;;;5025286;28;19979;-59
2021/11/01 00:40:33;;;;;;;;;;;;;;;;;;5027087;28;19925;-59
2021/11/01 00:43:03;;;;;;;;;;;;;;;;;;5026983;28;19925;-60
2021/11/01 00:45:30;;;;;;;;;;;;;;;;;;5024221;28;19935;-60
2021/11/01 00:47:57;;;;;;;;;;;;;;;;;;5029428;28;20035;-60
2021/11/01 00:50:24;;;;;;;;;;;;;;;;;;5026341;28;19994;-60
2021/11/01 00:52:51;;;;;;;;;;;;;;;;;;5024584;28;19979;-61
2021/11/01 00:55:24;;;;;;;;;;;;;;;;;;5024718;28;19925;-60
2021/11/01 00:57:51;;;;;;;;;;;;;;;;;;5022528;28;19979;-60
2021/11/01 01:00:18;;;;;;;;;;;;;;;;;;5020597;28;20029;-59
2021/11/01 01:02:46;;;;;;;;;;;;;;;;;;5021054;28;19937;-60
2021/11/01 01:05:13;;;;;;;;;;;;;;;;;;5025597;28;20023;-62
2021/11/01 01:07:40;;;;;;;;;;;;;;;;;;5029678;28;19969;-61
2021/11/01 01:10:07;;;;;;;;;;;;;;;;;;5031372;28;19932;-61
2021/11/01 01:12:34;;;;;;;;;;;;;;;;;;5031772;28;19929;-60
2021/11/01 01:15:04;;;;;;;;;;;;;;;;;;5031616;28;19925;-60
2021/11/01 01:17:32;;;;;;;;;;;;;;;;;;5030331;28;20335;-60
2021/11/01 01:20:04;;;;;;;;;;;;;;;;;;5027740;28;19925;-59
2021/11/01 01:22:31;;;;;;;;;;;;;;;;;;5030528;28;20315;-61
2021/11/01 01:25:00;;;;;;;;;;;;;;;;;;5029411;28;19937;-61
2021/11/01 01:27:28;;;;;;;;;;;;;;;;;;5030974;28;20011;-60
2021/11/01 01:29:55;;;;;;;;;;;;;;;;;;5027341;28;20266;-60
2021/11/01 01:32:22;;;;;;;;;;;;;;;;;;5029303;28;19930;-61
2021/11/01 01:34:49;;;;;;;;;;;;;;;;;;5031132;28;19933;-60
2021/11/01 01:37:16;;;;;;;;;;;;;;;;;;5029418;28;20404;-60
2021/11/01 01:39:43;;;;;;;;;;;;;;;;;;5032492;28;19929;-60
2021/11/01 01:42:10;;;;;;;;;;;;;;;;;;5032886;28;19932;-61
2021/11/01 01:44:38;;;;;;;;;;;;;;;;;;5029901;28;20468;-61
2021/11/01 01:47:06;;;;;;;;;;;;;;;;;;5029036;28;19936;-60
2021/11/01 01:49:33;;;;;;;;;;;;;;;;;;5032364;28;20020;-61
2021/11/01 01:52:00;;;;;;;;;;;;;;;;;;5027979;28;20016;-60
2021/11/01 01:54:27;;;;;;;;;;;;;;;;;;5020618;28;19931;-60
2021/11/01 01:56:54;;;;;;;;;;;;;;;;;;5026499;28;20292;-60
2021/11/01 01:59:21;;;;;;;;;;;;;;;;;;5028439;28;19929;-61
2021/11/01 02:01:48;;;;;;;;;;;;;;;;;;5025026;28;19925;-61
2021/11/01 02:04:15;;;;;;;;;;;;;;;;;;5031505;28;20302;-60
2021/11/01 02:06:43;;;;;;;;;;;;;;;;;;5036247;28;19929;-60
2021/11/01 02:09:10;;;;;;;;;;;;;;;;;;5031896;28;20023;-60
2021/11/01 02:11:37;;;;;;;;;;;;;;;;;;5035918;28;19936;-59
2021/11/01 02:14:04;;;;;;;;;;;;;;;;;;5028625;28;20278;-59
2021/11/01 02:16:31;;;;;;;;;;;;;;;;;;5031427;28;19932;-60
2021/11/01 02:18:58;;;;;;;;;;;;;;;;;;5031771;28;20004;-60
2021/11/01 02:21:25;;;;;;;;;;;;;;;;;;5033655;28;19924;-58
2021/11/01 02:23:53;;;;;;;;;;;;;;;;;;5031276;28;19975;-60
2021/11/01 02:26:23;;;;;;;;;;;;;;;;;;5026979;28;19925;-61
2021/11/01 02:28:50;;;;;;;;;;;;;;;;;;5031070;28;20266;-60
2021/11/01 02:31:19;;;;;;;;;;;;;;;;;;5031705;28;19926;-60
2021/11/01 02:33:46;;;;;;;;;;;;;;;;;;5032836;28;19931;-60
2021/11/01 02:36:13;;;;;;;;;;;;;;;;;;5033686;28;19936;-61
2021/11/01 02:38:40;;;;;;;;;;;;;;;;;;5030989;28;20346;-61
2021/11/01 02:41:07;;;;;;;;;;;;;;;;;;5037340;28;19925;-61
2021/11/01 02:43:34;;;;;;;;;;;;;;;;;;5031847;28;19929;-61
2021/11/01 02:46:01;;;;;;;;;;;;;;;;;;5025234;28;19932;-61
2021/11/01 02:48:28;;;;;;;;;;;;;;;;;;5026893;28;20385;-60
2021/11/01 02:50:55;;;;;;;;;;;;;;;;;;5028658;28;19925;-61
2021/11/01 02:53:21;;;;;;;;;;;;;;;;;;5028060;28;20296;-61
2021/11/01 02:55:48;;;;;;;;;;;;;;;;;;5028053;28;19932;-61
2021/11/01 02:58:15;;;;;;;;;;;;;;;;;;5024244;28;19929;-61
2021/11/01 03:00:42;;;;;;;;;;;;;;;;;;5029504;28;19929;-60
2021/11/01 03:03:09;;;;;;;;;;;;;;;;;;5028961;28;19932;-61
2021/11/01 03:05:36;;;;;;;;;;;;;;;;;;5029172;28;19925;-61
2021/11/01 03:08:04;;;;;;;;;;;;;;;;;;5025213;28;20399;-61
2021/11/01 03:10:31;;;;;;;;;;;;;;;;;;5022929;28;19925;-60
2021/11/01 03:12:59;;;;;;;;;;;;;;;;;;5024565;28;19933;-61
2021/11/01 03:15:28;;;;;;;;;;;;;;;;;;5026253;28;19925;-60
2021/11/01 03:17:55;;;;;;;;;;;;;;;;;;5028757;28;21326;-59
2021/11/01 03:20:22;;;;;;;;;;;;;;;;;;5029703;28;19932;-60
2021/11/01 03:22:49;;;;;;;;;;;;;;;;;;5027538;28;19968;-60
2021/11/01 03:25:18;;;;;;;;;;;;;;;;;;5031743;28;20317;-60
2021/11/01 03:27:46;;;;;;;;;;;;;;;;;;5029292;28;19925;-60
2021/11/01 03:30:13;;;;;;;;;;;;;;;;;;5032991;28;19932;-60
2021/11/01 03:32:40;;;;;;;;;;;;;;;;;;5029998;28;19979;-59
2021/11/01 03:35:08;;;;;;;;;;;;;;;;;;5033586;28;20454;-59
2021/11/01 03:37:35;;;;;;;;;;;;;;;;;;5030890;28;20393;-60
2021/11/01 03:40:03;;;;;;;;;;;;;;;;;;5029917;28;19925;-60
2021/11/01 03:42:30;;;;;;;;;;;;;;;;;;5027582;28;19940;-60
2021/11/01 03:45:02;;;;;;;;;;;;;;;;;;5033450;23;19925;-67
2021/11/01 03:47:31;;;;;;;;;;;;;;;;;;5029894;28;19929;-67
2021/11/01 03:50:02;;;;;;;;;;;;;;;;;;5027004;28;19944;-67
2021/11/01 03:52:33;;;;;;;;;;;;;;;;;;5026739;28;19929;-67
2021/11/01 03:55:00;;;;;;;;;;;;;;;;;;5024044;28;19925;-67
2021/11/01 03:57:27;;;;;;;;;;;;;;;;;;5021338;28;19926;-68
2021/11/01 03:59:54;;;;;;;;;;;;;;;;;;5022623;28;19936;-66
2021/11/01 04:02:21;;;;;;;;;;;;;;;;;;5023131;28;19929;-66
2021/11/01 04:04:48;;;;;;;;;;;;;;;;;;5021872;28;19932;-67
2021/11/01 04:07:15;;;;;;;;;;;;;;;;;;5024898;28;20301;-68
2021/11/01 04:09:43;;;;;;;;;;;;;;;;;;5027635;28;19968;-67
2021/11/01 04:12:10;;;;;;;;;;;;;;;;;;5025372;28;19925;-67
2021/11/01 04:14:40;;;;;;;;;;;;;;;;;;5021238;28;19925;-66
2021/11/01 04:17:12;;;;;;;;;;;;;;;;;;5023864;28;20389;-67
2021/11/01 04:19:47;;;;;;;;;;;;;;;;;;5025871;28;20458;-66
2021/11/01 04:22:14;;;;;;;;;;;;;;;;;;5022255;28;19937;-67
2021/11/01 04:24:41;;;;;;;;;;;;;;;;;;5024558;28;19948;-67
2021/11/01 04:27:08;;;;;;;;;;;;;;;;;;5018012;28;19958;-67
2021/11/01 04:29:35;;;;;;;;;;;;;;;;;;5025437;28;19987;-67
2021/11/01 04:32:12;;;;;;;;;;;;;;;;;;5026172;28;19929;-67
2021/11/01 04:34:41;;;;;;;;;;;;;;;;;;5023673;28;20397;-66
2021/11/01 04:37:08;;;;;;;;;;;;;;;;;;5025259;28;19926;-67
2021/11/01 04:39:43;;;;;;;;;;;;;;;;;;5021839;28;20293;-67
2021/11/01 04:53:09;;;;;;;;;;;;;;;;;;5025983;28;19936;-66
2021/11/01 04:55:36;;;;;;;;;;;;;;;;;;5022664;28;19929;-67
2021/11/01 04:58:04;;;;;;;;;;;;;;;;;;5023333;28;20019;-66
2021/11/01 05:00:31;;;;;;;;;;;;;;;;;;5020277;28;19992;-67
2021/11/01 05:03:00;;;;;;;;;;;;;;;;;;5022950;28;20377;-68
2021/11/01 05:05:27;;;;;;;;;;;;;;;;;;5020329;28;19929;-68
2021/11/01 05:07:58;;;;;;;;;;;;;;;;;;5020987;28;20012;-67
2021/11/01 05:10:28;;;;;;;;;;;;;;;;;;5023630;28;19929;-67
2021/11/01 05:12:55;;;;;;;;;;;;;;;;;;5024031;28;20301;-67
2021/11/01 05:15:30;;;;;;;;;;;;;;;;;;5026567;28;19929;-68
2021/11/01 05:18:00;;;;;;;;;;;;;;;;;;5024480;28;20024;-68
2021/11/01 05:20:34;;;;;;;;;;;;;;;;;;5028013;28;20036;-67
2021/11/01 05:23:12;;;;;;;;;;;;;;;;;;5022517;28;19925;-67
2021/11/01 05:25:42;;;;;;;;;;;;;;;;;;5021325;28;20404;-68
2021/11/01 05:28:14;;;;;;;;;;;;;;;;;;5025975;28;19925;-68
2021/11/01 05:30:44;;;;;;;;;;;;;;;;;;5026057;28;19964;-67
2021/11/01 05:33:34;;;;;;;;;;;;;;;;;;5028554;28;20404;-68
2021/11/01 05:36:00;;;;;;;;;;;;;;;;;;5021901;28;19933;-69
2021/11/01 05:38:27;;;;;;;;;;;;;;;;;;5023524;28;19932;-68
2021/11/01 05:40:54;;;;;;;;;;;;;;;;;;5021944;28;19929;-68
2021/11/01 05:43:21;;;;;;;;;;;;;;;;;;5025411;28;20328;-67
2021/11/01 05:45:48;;;;;;;;;;;;;;;;;;5023364;28;19935;-67
2021/11/01 05:48:15;;;;;;;;;;;;;;;;;;5030522;28;19925;-68
2021/11/01 05:50:42;;;;;;;;;;;;;;;;;;5022718;28;19941;-67
2021/11/01 05:53:12;;;;;;;;;;;;;;;;;;5030077;28;19929;-66
2021/11/01 05:55:45;;;;;;;;;;;;;;;;;;5027096;28;19932;-68
2021/11/01 05:58:16;;;;;;;;;;;;;;;;;;5026068;28;19940;-67
2021/11/01 06:00:55;;;;;;;;;;;;;;;;;;5025993;28;19975;-67
2021/11/01 06:03:25;;;;;;;;;;;;;;;;;;5028568;28;19925;-67
2021/11/01 06:06:01;;;;;;;;;;;;;;;;;;5027311;28;19932;-67
2021/11/01 06:14:05;;;;;;;;;;;;;;;;;;5027474;28;19988;-68
2021/11/01 06:16:32;;;;;;;;;;;;;;;;;;5021190;28;19933;-66
2021/11/01 06:18:59;;;;;;;;;;;;;;;;;;5026807;28;20016;-68
2021/11/01 06:21:27;;;;;;;;;;;;;;;;;;5024821;28;19925;-67
2021/11/01 06:23:54;;;;;;;;;;;;;;;;;;5025378;28;20367;-68
2021/11/01 06:26:22;;;;;;;;;;;;;;;;;;5027823;28;19925;-68
2021/11/01 06:28:56;;;;;;;;;;;;;;;;;;5024644;28;19983;-67
2021/11/01 06:31:27;;;;;;;;;;;;;;;;;;5028414;28;19925;-68
2021/11/01 06:34:19;;;;;;;;;;;;;;;;;;5029519;28;19933;-68
2021/11/01 06:42:37;;;;;;;;;;;;;;;;;;5087696;27;20792;-69
2021/11/01 06:45:19;;;;;;;;;;;;;;;;;;5060004;28;19931;-66
2021/11/01 06:51:00;;;;;;;;;;;;;;;;;;5064671;28;20323;-67
2021/11/01 06:53:54;;;;;;;;;;;;;;;;;;5064234;28;20070;-68
2021/11/01 07:15:46;;;;;;;;;;;;;;;;;;5055943;28;20376;-67
2021/11/01 07:18:16;;;;;;;;;;;;;;;;;;5063598;28;19936;-68
2021/11/01 07:20:53;;;;;;;;;;;;;;;;;;5060376;28;19929;-68
2021/11/01 08:24:37;;;;;;;;;;;;;;;;;;5090820;27;19917;-69
2021/11/01 08:41:09;;;;;;;;;;;;;;;;;;5054726;28;19928;-70
2021/11/01 08:43:49;;;;;;;;;;;;;;;;;;5070865;28;19928;-69
2021/11/01 09:25:15;;;;;;;;;;;;;;;;;;5093690;28;20032;-68
2021/11/01 09:27:51;;;;;;;;;;;;;;;;;;5093433;28;20396;-67
2021/11/01 09:30:35;;;;;;;;;;;;;;;;;;5096079;28;20240;-67
2021/11/01 09:35:55;;;;;;;;;;;;;;;;;;5082244;28;19956;-68
2021/11/01 09:41:12;;;;;;;;;;;;;;;;;;5039162;28;19921;-68
2021/11/01 09:43:39;;;;;;;;;;;;;;;;;;5092070;22;20311;-59
2021/11/01 09:46:07;;;;;;;;;;;;;;;;;;5060701;28;19942;-58
2021/11/01 09:48:34;;;;;;;;;;;;;;;;;;5066192;28;19924;-58
2021/11/01 09:51:01;;;;;;;;;;;;;;;;;;5067185;28;19929;-59
2021/11/01 09:53:29;;;;;;;;;;;;;;;;;;5059458;28;19971;-58
2021/11/01 09:56:06;;;;;;;;;;;;;;;;;;5046553;28;20016;-57
2021/11/01 10:01:27;;;;;;;;;;;;;;;;;;5016166;28;19920;-57
2021/11/01 10:03:54;;;;;;;;;;;;;;;;;;5039624;28;19925;-59
2021/11/01 10:06:22;;;;;;;;;;;;;;;;;;5056943;28;20119;-58
2021/11/01 10:08:49;;;;;;;;;;;;;;;;;;5051537;28;20388;-57
2021/11/01 10:11:16;;;;;;;;;;;;;;;;;;5052013;28;20303;-59
2021/11/01 10:13:43;;;;;;;;;;;;;;;;;;5050575;28;19924;-60
2021/11/01 10:18:55;;;;;;;;;;;;;;;;;;5044290;28;20074;-59
2021/11/01 10:21:22;;;;;;;;;;;;;;;;;;5042807;28;19942;-58
2021/11/01 10:23:49;;;;;;;;;;;;;;;;;;5044496;28;19933;-59
2021/11/01 10:26:16;;;;;;;;;;;;;;;;;;5043799;28;19948;-60
2021/11/01 10:28:43;;;;;;;;;;;;;;;;;;5047179;28;20711;-59
2021/11/01 10:31:10;;;;;;;;;;;;;;;;;;5048465;28;19925;-60
2021/11/01 10:33:43;;;;;;;;;;;;;;;;;;5049303;28;19928;-58
2021/11/01 10:36:10;;;;;;;;;;;;;;;;;;5046431;28;19959;-60
2021/11/01 10:38:40;;;;;;;;;;;;;;;;;;5046317;28;19978;-60
2021/11/01 10:41:11;;;;;;;;;;;;;;;;;;5046085;28;19932;-60
2021/11/01 11:13:54;;;;;;;;;;;;;;;;;;5041872;28;19921;-60
2021/11/01 11:16:42;;;;;;;;;;;;;;;;;;5044194;28;20009;-58
2021/11/01 11:19:17;;;;;;;;;;;;;;;;;;5047520;28;19954;-61
2021/11/01 11:24:36;;;;;;;;;;;;;;;;;;5039486;28;19925;-60
2021/11/01 11:27:15;;;;;;;;;;;;;;;;;;5045681;28;20391;-59
2021/11/01 11:29:58;;;;;;;;;;;;;;;;;;5041334;28;20548;-59
2021/11/01 11:32:49;;;;;;;;;;;30.80;44.50;;;;;;5049227;28;19925;-60
2021/11/01 11:38:26;;;;;;;;;;;;;;;;;;5003644;28;19924;-59
2021/11/01 11:48:55;;;;;;;;;;;;;;;;;;5056955;28;19923;-60
2021/11/01 11:51:22;;;;;;;;;;;;;;;;;;5055757;28;20023;-57
2021/11/01 11:53:50;;;;;;;;;;;;;;;;;;5055328;28;19925;-62
2021/11/01 11:56:17;;;;;;;;;;;;;;;;;;5052256;28;19991;-60
2021/11/01 11:58:44;;;;;;;;;;;;;;;;;;5047189;28;20602;-59
2021/11/01 12:01:11;;;;;;;;;;;;;;;;;;5046678;28;19936;-60
2021/11/01 12:03:38;;;;;;;;;;;;;;;;;;5047597;28;20035;-61
2021/11/01 12:06:10;;;;;;;;;;;;;;;;;;5046002;28;20013;-61
2021/11/01 12:08:40;;;;;;;;;;;;;;;;;;5048946;28;20077;-57
2021/11/01 12:11:19;;;;;;;;;;;;;;;;;;5048045;28;19935;-59
2021/11/01 12:19:16;;;;;;;;;;;;;;;;;;5043064;28;19927;-59
2021/11/01 12:21:43;;;;;;;;;;;;;;;;;;5048088;28;20047;-62
2021/11/01 12:24:10;;;;;;;;;;;;;;;;;;5049819;28;19925;-59
2021/11/01 12:26:41;;;;;;;;;;;;;;;;;;5060411;28;20027;-60
2021/11/01 12:29:08;;;;;;;;;;;;;;;;;;5057969;28;19964;-60
2021/11/01 12:31:35;;;;;;;;;;;;;;;;;;5054190;28;19994;-59
2021/11/01 12:34:04;;;;;;;;;;;;;;;;;;5053228;28;20015;-60
2021/11/01 12:36:38;;;;;;;;;;;;;;;;;;5052452;28;20372;-59
2021/11/01 12:39:09;;;;;;;;;;;;;;;;;;5053285;28;20399;-61
2021/11/01 12:41:45;;;;;;;;;;;;;;;;;;5055141;28;20182;-61
2021/11/01 12:44:59;;;;;;;;;;;;;;;;;;5049806;28;19932;-61
2021/11/01 12:58:16;;;;;;;;;;;;;;;;;;5045329;28;19955;-57
2021/11/01 13:00:44;;;;;;;;;;;;;;;;;;5044867;28;20992;-57
2021/11/01 13:03:11;;;;;;;;;;;;;;;;;;5040949;28;19932;-58
2021/11/01 13:05:38;;;;;;;;;;;;;;;;;;5040655;28;19935;-60
2021/11/01 13:08:09;;;;;;;;;;;;;;;;;;5040681;28;19925;-58
2021/11/01 13:10:38;;;;;;;;;;;;;;;;;;5041245;28;19929;-59
2021/11/01 13:18:36;;;;;;;;;;;;;;;;;;5043838;28;20063;-57
2021/11/01 13:21:02;;;;;;;;;;;;;;;;;;5047326;28;19932;-59
2021/11/01 13:23:32;;;;;;;;;;;;;;;;;;5045848;28;19971;-57
2021/11/01 13:26:14;;;;;;;;;;;;;;;;;;5045233;28;20407;-57
2021/11/01 13:28:51;;;;;;;;;;;;;;;;;;5049013;28;19928;-56
2021/11/01 13:36:47;;;;;;;;;;;;;;;;;;5046880;28;19973;-59
2021/11/01 13:39:14;;;;;;;;;;;;;;;;;;5047496;28;20427;-59
2021/11/01 13:41:41;;;;;;;;;;;;;;;;;;5052320;28;19925;-56
2021/11/01 13:44:08;;;;;;;;;;;;;;;;;;5050507;28;19925;-58
2021/11/01 13:46:34;;;;;;;;;;;;;;;;;;5040817;28;19924;-59
2021/11/01 13:49:01;;;;;;;;;;;;;;;;;;5045305;28;19936;-59
2021/11/01 13:51:28;;;;;;;;;;;;;;;;;;5047472;28;19951;-57
2021/11/01 13:54:03;;;;;;;;;;;;;;;;;;5047416;28;19956;-60
2021/11/01 13:56:34;;;;;;;;;;;;;;;;;;5042168;28;20019;-58
2021/11/01 13:59:05;;;;;;;;;;;;;;;;;;5039945;28;20012;-58
2021/11/01 14:12:58;;;;;;;;;;;;;;;;;;5050641;28;19915;-57
2021/11/01 14:18:37;;;;;;;;;;;;;;;;;;5017112;28;19979;-56
2021/11/01 14:29:27;;;;;;;;;;;;;;;;;;5043979;28;20442;-57
2021/11/01 14:35:04;;;;;;;;;;;;;;;;;;5021409;28;19924;-57
2021/11/01 15:22:29;;;;;;;;;;;;;;;;;;4989736;28;20057;-59
2021/11/01 15:28:05;;;;;;;;;;;;;;;;;;5099705;27;19958;-59
2021/11/01 15:38:56;;;;;;;;;;;;;;;;;;5076192;28;19928;-59
2021/11/01 16:17:55;;;;;;;;;;;;;;;;;;5079246;28;20086;-60
2021/11/01 16:20:22;;;;;;;;;;;;;;;;;;5076603;28;19931;-60
2021/11/01 16:22:50;;;;;;;;;;;;;;;;;;5075718;28;20296;-59
2021/11/01 16:25:17;;;;;;;;;;;;;;;;;;5071715;28;19935;-60
2021/11/01 16:27:48;;;;;;;;;;;;;;;;;;5080900;28;19950;-60
2021/11/01 16:30:19;;;;;;;;;;;;;;;;;;5075243;28;19985;-60
2021/11/01 16:32:47;;;;;;;;;;;;;;;;;;5078747;28;20336;-60
2021/11/01 16:35:19;;;;;;;;;;;;;;;;;;5075212;28;19934;-60
2021/11/01 16:37:49;;;;;;;;;;;;;;;;;;5072355;28;19925;-60
2021/11/01 16:40:16;;;;;;;;;;;;;;;;;;5062319;28;20310;-60
2021/11/01 16:42:44;;;;;;;;;;;;;;;;;;5064025;28;20407;-59
2021/11/01 16:45:14;;;;;;;;;;;;;;;;;;5064850;28;19997;-60
2021/11/01 16:47:41;;;;;;;;;;;;;;;;;;5062834;28;20292;-59
2021/11/01 16:50:10;;;;;;;;;;;;;;;;;;5065743;28;19985;-59
2021/11/01 16:52:37;;;;;;;;;;;;;;;;;;5068882;28;19925;-59
2021/11/01 16:55:12;;;;;;;;;;;;;;;;;;5067466;28;19925;-59
2021/11/01 16:57:41;;;;;;;;;;;;;;;;;;5065737;28;20023;-60
2021/11/01 17:00:17;;;;;;;;;;;;;;;;;;5063485;28;19925;-62
2021/11/01 17:02:49;;;;;;;;;;;;;;;;;;5065401;28;20364;-60
2021/11/01 17:05:32;;;;;;;;;;;;;;;;;;5060980;28;19974;-59
2021/11/01 17:21:52;;;;;;;;;;;;;;;;;;5055092;28;20011;-60
2021/11/01 17:24:24;;;;;;;;;;;;;;;;;;5061575;28;20007;-58
2021/11/01 17:27:02;;;;;;;;;;;;;;;;;;5065009;28;20318;-60
2021/11/01 17:29:39;;;;;;;;;;;;;;;;;;5063469;28;20026;-59
2021/11/01 17:35:00;;;;;;;;;;;;;;;;;;5064238;28;20300;-61
2021/11/01 17:37:32;;;;;;;;;;;;;;;;;;5059657;28;19925;-60
2021/11/01 18:40:52;;;;;;;;;;;;;;;;;;5060762;28;19970;-59
2021/11/01 18:43:34;;;;;;;;;;;;;;;;;;5067886;28;19978;-60
2021/11/01 18:51:37;;;;;;;;;;;;;;;;;;5064505;28;19963;-60
2021/11/01 18:54:04;;;;;;;;;;;;;;;;;;5064042;28;20011;-58
2021/11/01 18:56:34;;;;;;;;;;;;;;;;;;5065421;28;19939;-60
2021/11/01 18:59:01;;;;;;;;;;;;;;;;;;5063336;28;19928;-59
2021/11/01 19:01:28;;;;;;;;;;;;;;;;;;5065152;28;19928;-57
2021/11/01 19:03:57;;;;;;;;;;;;;;;;;;5062189;28;19976;-56
2021/11/01 19:06:33;;;;;;;;;;;;;;;;;;5064673;28;19958;-60
2021/11/01 19:09:15;;;;;;;;;;;;;;;;;;5062130;28;19924;-57
2021/11/01 21:26:51;;;;;;;;;;;;;;;;;;5058448;28;19927;-60
2021/11/01 21:29:18;;;;;;;;;;;;;;;;;;5062238;28;19935;-61
2021/11/01 21:31:45;;;;;;;;;;;;;;;;;;5061647;28;19947;-62
2021/11/01 21:34:16;;;;;;;;;;;;;;;;;;5065359;28;19946;-60
2021/11/01 21:36:43;;;;;;;;;;;;;;;;;;5066733;28;20289;-59
2021/11/01 21:39:10;;;;;;;;;;;;;;;;;;5059864;28;19928;-60
2021/11/01 21:41:37;;;;;;;;;;;;;;;;;;5066374;28;19925;-60
2021/11/01 21:44:04;;;;;;;;;;;;;;;;;;5067354;28;19925;-60
2021/11/01 21:46:31;;;;;;;;;;;;;;;;;;5071340;28;19932;-59
2021/11/01 21:48:58;;;;;;;;;;;;;;;;;;5075841;28;19931;-59
2021/11/01 21:51:26;;;;;;;;;;;;;;;;;;5065924;28;20396;-62
2021/11/01 21:53:59;;;;;;;;;;;;;;;;;;5065684;28;20317;-60
2021/11/01 21:56:29;;;;;;;;;;;;;;;;;;5064255;28;19932;-60
2021/11/01 21:59:13;;;;;;;;;;;;;;;;;;5076364;28;19932;-62
2021/11/01 22:10:16;;;;;;;;;;;;;;;;;;5068110;28;19969;-61
2021/11/01 22:18:28;;;;;;;;;;;;;;;;;;5008916;28;19964;-60
2021/11/01 22:21:00;;;;;;;;;;;;;;;;;;5047648;28;20282;-60
2021/11/01 22:23:36;;;;;;;;;;;;;;;;;;5075883;28;19939;-59
2021/11/01 22:26:06;;;;;;;;;;;;;;;;;;5074768;28;19931;-60
2021/11/01 22:34:14;;;;;;;;;;;;;;;;;;5065595;28;20362;-60
2021/11/01 22:39:31;;;;;;;;;;;;;;;;;;5061485;28;20355;-57
2021/11/01 22:42:14;;;;;;;;;;;;;;;;;;5061548;28;19925;-56
2021/11/01 22:45:00;;;;;;;;;;;;;;;;;;5060159;28;20307;-52
2021/11/01 22:55:57;;;;;;;;;;;;;;;;;;5059857;28;19939;-56
2021/11/01 22:58:25;;;;;;;;;;;;;;;;;;5066730;28;19924;-57
2021/11/01 23:00:54;;;;;;;;;;;;;;;;;;5063128;28;20415;-58
2021/11/01 23:03:24;;;;;;;;;;;;;;;;;;5066215;28;19929;-57
2021/11/01 23:33:22;;;;;;;;;;;;;;;;;;5059785;28;20327;-58
2021/11/01 23:35:49;;;;;;;;;;;;;;;;;;5060409;28;19931;-58
2021/11/01 23:38:16;;;;;;;;;;;;;;;;;;5058234;28;19925;-55
2021/11/01 23:40:43;;;;;;;;;;;;;;;;;;5060072;28;19928;-57
2021/11/01 23:43:12;;;;;;;;;;;;;;;;;;5055965;28;19925;-59
2021/11/01 23:45:39;;;;;;;;;;;;;;;;;;5060531;28;19935;-57
2021/11/01 23:48:06;;;;;;;;;;;;;;;;;;5060460;28;19976;-59
2021/11/01 23:50:34;;;;;;;;;;;;;;;;;;5065355;28;19925;-55
2021/11/01 23:53:06;;;;;;;;;;;;;;;;;;5063344;28;19929;-55
2021/11/01 23:55:33;;;;;;;;;;;;;;;;;;5072441;28;19924;-56
2021/11/01 23:58:00;;;;;;;;;;;;;;;;;;5066828;28;19932;-55
